createdAt,value
2022-12-13T00:00:52.046Z,89.56
2022-12-13T00:02:00.163Z,89.68
2022-12-13T00:03:04.229Z,89.76
2022-12-13T00:04:14.466Z,89.73
2022-12-13T00:05:18.305Z,89.30
2022-12-13T00:06:21.906Z,89.17
2022-12-13T00:07:25.695Z,89.34
2022-12-13T00:08:30.434Z,89.71
2022-12-13T00:09:34.867Z,89.41
2022-12-13T00:10:38.869Z,89.39
2022-12-13T00:11:43.200Z,89.44
2022-12-13T00:12:47.129Z,89.09
2022-12-13T00:13:51.427Z,89.21
2022-12-13T00:15:01.737Z,89.26
2022-12-13T00:16:11.133Z,89.13
2022-12-13T00:17:14.803Z,89.34
2022-12-13T00:18:18.887Z,89.61
2022-12-13T00:19:22.981Z,89.66
2022-12-13T00:20:26.682Z,89.88
2022-12-13T00:21:34.436Z,89.60
2022-12-13T00:22:39.470Z,89.34
2022-12-13T00:23:43.055Z,89.20
2022-12-13T00:24:47.218Z,88.94
2022-12-13T00:25:51.589Z,89.24
2022-12-13T00:26:56.824Z,89.09
2022-12-13T00:28:00.882Z,89.01
2022-12-13T00:29:07.557Z,88.92
2022-12-13T00:30:11.341Z,89.08
2022-12-13T00:32:39.980Z,88.69
2022-12-13T00:33:44.278Z,88.73
2022-12-13T00:34:48.894Z,88.65
2022-12-13T00:35:53.139Z,88.69
2022-12-13T00:36:59.584Z,88.50
2022-12-13T00:38:03.246Z,89.08
2022-12-13T00:39:07.069Z,89.10
2022-12-13T00:40:11.553Z,89.02
2022-12-13T00:41:22.431Z,89.23
2022-12-13T00:42:36.155Z,88.63
2022-12-13T00:43:39.968Z,89.31
2022-12-13T00:44:43.667Z,88.54
2022-12-13T00:45:47.599Z,88.59
2022-12-13T00:46:54.804Z,88.51
2022-12-13T00:47:58.535Z,87.94
2022-12-13T00:49:02.507Z,87.95
2022-12-13T00:50:07.545Z,88.04
2022-12-13T00:51:12.949Z,88.09
2022-12-13T00:52:17.064Z,87.70
2022-12-13T00:53:20.744Z,87.76
2022-12-13T00:54:25.090Z,87.78
2022-12-13T00:55:28.900Z,87.22
2022-12-13T00:56:34.295Z,87.55
2022-12-13T00:57:38.180Z,87.67
2022-12-13T00:58:47.316Z,86.96
2022-12-13T00:59:54.260Z,87.06
2022-12-13T01:01:15.058Z,87.05
2022-12-13T01:02:19.096Z,87.00
2022-12-13T01:03:25.714Z,86.89
2022-12-13T01:04:29.639Z,87.02
2022-12-13T01:06:12.840Z,87.21
2022-12-13T01:07:02.628Z,87.31
2022-12-13T01:08:09.207Z,87.17
2022-12-13T01:09:27.511Z,87.21
2022-12-13T01:10:31.606Z,87.37
2022-12-13T01:11:35.664Z,87.35
2022-12-13T01:12:40.236Z,87.02
2022-12-13T01:13:45.257Z,86.58
2022-12-13T01:14:53.130Z,86.70
2022-12-13T01:16:03.033Z,87.01
2022-12-13T01:17:08.130Z,86.74
2022-12-13T01:18:19.478Z,87.44
2022-12-13T01:19:25.618Z,87.08
2022-12-13T01:20:29.418Z,86.88
2022-12-13T01:21:33.486Z,86.98
2022-12-13T01:22:37.595Z,87.20
2022-12-13T01:23:43.131Z,86.95
2022-12-13T01:24:47.020Z,87.08
2022-12-13T01:25:54.539Z,86.90
2022-12-13T01:26:59.262Z,87.04
2022-12-13T01:28:02.816Z,87.13
2022-12-13T01:29:18.849Z,86.89
2022-12-13T01:30:22.771Z,87.18
2022-12-13T01:31:27.507Z,87.18
2022-12-13T01:32:31.142Z,86.97
2022-12-13T01:33:35.873Z,86.46
2022-12-13T01:34:39.729Z,86.46
2022-12-13T01:35:43.259Z,86.64
2022-12-13T01:36:50.315Z,86.76
2022-12-13T01:37:54.399Z,87.15
2022-12-13T01:39:03.523Z,87.17
2022-12-13T01:40:18.353Z,87.59
2022-12-13T01:41:27.028Z,87.29
2022-12-13T01:42:31.740Z,87.45
2022-12-13T01:43:38.054Z,87.29
2022-12-13T01:44:57.315Z,87.26
2022-12-13T01:46:00.896Z,87.23
2022-12-13T01:47:04.722Z,87.16
2022-12-13T01:48:14.815Z,87.48
2022-12-13T01:49:20.907Z,87.55
2022-12-13T01:50:34.553Z,87.29
2022-12-13T01:51:47.313Z,87.53
2022-12-13T01:52:55.049Z,87.34
2022-12-13T01:54:03.405Z,87.46
2022-12-13T01:55:09.524Z,87.85
2022-12-13T01:56:22.684Z,87.53
2022-12-13T01:57:27.467Z,87.69
2022-12-13T01:58:32.293Z,88.24
2022-12-13T01:59:42.018Z,88.15
2022-12-13T02:00:48.827Z,88.24
2022-12-13T02:01:53.215Z,88.56
2022-12-13T02:03:08.095Z,87.91
2022-12-13T02:04:35.060Z,88.26
2022-12-13T02:06:03.493Z,88.31
2022-12-13T02:07:09.594Z,88.42
2022-12-13T02:08:17.194Z,88.09
2022-12-13T02:09:25.196Z,88.16
2022-12-13T02:10:31.350Z,88.33
2022-12-13T02:11:45.009Z,87.82
2022-12-13T02:12:49.210Z,87.95
2022-12-13T02:13:53.826Z,87.54
2022-12-13T02:15:08.210Z,88.22
2022-12-13T02:16:54.975Z,87.96
2022-12-13T02:18:28.141Z,87.90
2022-12-13T02:20:37.587Z,88.28
2022-12-13T02:22:02.755Z,88.18
2022-12-13T02:23:24.961Z,88.02
2022-12-13T02:24:50.167Z,87.97
2022-12-13T02:26:25.395Z,88.08
2022-12-13T02:27:43.309Z,87.46
2022-12-13T02:29:30.075Z,87.57
2022-12-13T02:30:53.295Z,87.38
2022-12-13T02:32:18.792Z,87.35
2022-12-13T02:34:12.859Z,87.48
2022-12-13T02:35:45.473Z,87.46
2022-12-13T02:37:27.422Z,87.20
2022-12-13T02:39:08.592Z,86.70
2022-12-13T02:40:52.720Z,87.32
2022-12-13T02:42:07.907Z,87.39
2022-12-13T02:43:35.660Z,87.25
2022-12-13T02:45:01.247Z,87.61
2022-12-13T02:46:08.946Z,87.97
2022-12-13T02:47:24.390Z,87.75
2022-12-13T02:48:34.395Z,87.49
2022-12-13T02:49:48.441Z,87.13
2022-12-13T02:50:54.123Z,87.23
2022-12-13T02:52:00.843Z,87.32
2022-12-13T02:53:07.296Z,87.27
2022-12-13T02:54:11.608Z,87.53
2022-12-13T02:55:17.712Z,87.37
2022-12-13T02:56:21.704Z,87.34
2022-12-13T02:57:40.861Z,87.33
2022-12-13T02:58:53.531Z,87.98
2022-12-13T03:00:05.204Z,87.77
2022-12-13T03:01:30.338Z,87.92
2022-12-13T03:02:53.344Z,87.73
2022-12-13T03:05:03.347Z,88.13
2022-12-13T03:06:33.302Z,87.94
2022-12-13T03:07:48.580Z,87.91
2022-12-13T03:09:21.362Z,87.70
2022-12-13T03:10:40.405Z,87.49
2022-12-13T03:12:24.021Z,87.61
2022-12-13T03:13:46.881Z,87.84
2022-12-13T03:15:11.798Z,87.46
2022-12-13T03:16:44.031Z,87.76
2022-12-13T03:18:15.786Z,87.84
2022-12-13T03:19:20.387Z,87.68
2022-12-13T03:20:28.758Z,87.83
2022-12-13T03:21:48.588Z,87.73
2022-12-13T03:22:54.619Z,87.96
2022-12-13T03:23:58.338Z,87.65
2022-12-13T03:25:02.252Z,87.80
2022-12-13T03:26:12.862Z,87.97
2022-12-13T03:27:16.856Z,87.79
2022-12-13T03:28:21.254Z,87.47
2022-12-13T03:29:25.156Z,87.35
2022-12-13T03:30:29.143Z,87.31
2022-12-13T03:31:33.273Z,87.48
2022-12-13T03:32:38.625Z,87.77
2022-12-13T03:33:42.253Z,87.63
2022-12-13T03:34:50.842Z,87.17
2022-12-13T03:36:06.397Z,87.84
2022-12-13T03:37:10.359Z,87.83
2022-12-13T03:38:21.995Z,87.55
2022-12-13T03:39:27.180Z,87.64
2022-12-13T03:40:33.858Z,86.98
2022-12-13T03:41:38.400Z,86.99
2022-12-13T03:42:42.487Z,87.26
2022-12-13T03:43:47.047Z,86.79
2022-12-13T03:44:51.290Z,87.12
2022-12-13T03:45:55.529Z,86.93
2022-12-13T03:47:00.625Z,87.21
2022-12-13T03:48:05.047Z,87.19
2022-12-13T03:49:11.366Z,87.31
2022-12-13T03:50:26.566Z,87.06
2022-12-13T03:51:30.932Z,86.53
2022-12-13T03:52:34.657Z,87.20
2022-12-13T03:53:38.465Z,86.97
2022-12-13T03:54:45.217Z,86.79
2022-12-13T03:55:49.158Z,87.25
2022-12-13T03:56:52.818Z,87.44
2022-12-13T03:57:56.855Z,87.14
2022-12-13T03:59:10.211Z,87.01
2022-12-13T04:00:14.780Z,86.86
2022-12-13T04:01:18.828Z,86.82
2022-12-13T04:02:31.356Z,86.83
2022-12-13T04:03:37.141Z,87.08
2022-12-13T04:04:41.092Z,87.08
2022-12-13T04:05:45.173Z,87.05
2022-12-13T04:06:49.324Z,87.69
2022-12-13T04:07:53.142Z,88.12
2022-12-13T04:09:04.907Z,87.89
2022-12-13T04:10:25.885Z,87.81
2022-12-13T04:11:49.264Z,87.58
2022-12-13T04:13:11.924Z,87.87
2022-12-13T04:14:22.353Z,87.87
2022-12-13T04:15:26.733Z,87.89
2022-12-13T04:16:30.450Z,88.16
2022-12-13T04:17:33.996Z,87.63
2022-12-13T04:18:37.884Z,87.89
2022-12-13T04:19:41.848Z,88.01
2022-12-13T04:20:46.609Z,88.02
2022-12-13T04:21:51.015Z,87.84
2022-12-13T04:22:54.538Z,88.03
2022-12-13T04:24:00.703Z,87.75
2022-12-13T04:25:05.883Z,87.44
2022-12-13T04:26:09.823Z,87.47
2022-12-13T04:27:14.206Z,87.91
2022-12-13T04:28:22.322Z,87.71
2022-12-13T04:29:26.841Z,88.03
2022-12-13T04:30:38.507Z,88.22
2022-12-13T04:31:42.358Z,87.90
2022-12-13T04:32:46.386Z,87.82
2022-12-13T04:33:50.055Z,88.11
2022-12-13T04:35:01.251Z,88.08
2022-12-13T04:36:06.358Z,87.93
2022-12-13T04:37:10.421Z,88.01
2022-12-13T04:38:14.113Z,87.77
2022-12-13T04:39:22.406Z,87.87
2022-12-13T04:40:26.554Z,88.12
2022-12-13T04:41:40.361Z,88.82
2022-12-13T04:42:44.392Z,88.93
2022-12-13T04:43:54.085Z,88.62
2022-12-13T04:44:57.811Z,88.65
2022-12-13T04:46:01.747Z,89.02
2022-12-13T04:47:06.121Z,88.62
2022-12-13T04:48:10.478Z,89.01
2022-12-13T04:49:14.762Z,88.72
2022-12-13T04:50:19.020Z,88.92
2022-12-13T04:51:23.204Z,89.12
2022-12-13T04:52:26.869Z,89.28
2022-12-13T04:53:30.922Z,89.47
2022-12-13T04:54:36.149Z,90.19
2022-12-13T04:55:40.663Z,90.17
2022-12-13T04:56:44.836Z,90.16
2022-12-13T04:57:49.641Z,90.57
2022-12-13T04:58:53.538Z,90.31
2022-12-13T04:59:57.464Z,90.72
2022-12-13T05:01:01.420Z,90.67
2022-12-13T05:02:07.797Z,90.60
2022-12-13T05:03:11.643Z,90.45
2022-12-13T05:04:15.503Z,90.43
2022-12-13T05:05:19.425Z,90.48
2022-12-13T05:06:27.429Z,91.05
2022-12-13T05:07:31.569Z,91.01
2022-12-13T05:08:36.742Z,91.57
2022-12-13T05:09:40.366Z,91.13
2022-12-13T05:10:44.038Z,91.31
2022-12-13T05:11:47.832Z,91.26
2022-12-13T05:12:51.532Z,91.77
2022-12-13T05:13:55.407Z,91.61
2022-12-13T05:14:59.144Z,91.81
2022-12-13T05:16:06.967Z,92.43
2022-12-13T05:17:10.635Z,92.05
2022-12-13T05:18:14.830Z,91.80
2022-12-13T05:19:18.475Z,91.94
2022-12-13T05:20:22.879Z,91.75
2022-12-13T05:21:26.481Z,91.88
2022-12-13T05:22:30.284Z,92.14
2022-12-13T05:23:34.569Z,92.33
2022-12-13T05:24:38.623Z,92.06
2022-12-13T05:25:42.455Z,91.57
2022-12-13T05:26:46.687Z,91.62
2022-12-13T05:27:57.051Z,91.79
2022-12-13T05:29:01.557Z,91.60
2022-12-13T05:30:05.950Z,91.19
2022-12-13T05:31:22.397Z,91.19
2022-12-13T05:32:27.827Z,91.32
2022-12-13T05:33:32.351Z,90.72
2022-12-13T05:34:36.447Z,90.70
2022-12-13T05:35:40.352Z,91.03
2022-12-13T05:36:44.285Z,91.03
2022-12-13T05:37:48.026Z,91.38
2022-12-13T05:38:57.607Z,91.42
2022-12-13T05:40:02.634Z,91.76
2022-12-13T05:41:07.142Z,91.77
2022-12-13T05:42:11.903Z,91.18
2022-12-13T05:43:21.828Z,91.37
2022-12-13T05:44:26.861Z,91.84
2022-12-13T05:45:33.672Z,92.34
2022-12-13T05:46:41.508Z,91.70
2022-12-13T05:47:46.151Z,91.40
2022-12-13T05:48:49.839Z,91.00
2022-12-13T05:49:53.581Z,91.16
2022-12-13T05:51:10.476Z,90.90
2022-12-13T05:52:30.533Z,90.96
2022-12-13T05:53:35.181Z,90.64
2022-12-13T05:54:38.930Z,90.61
2022-12-13T05:55:46.911Z,90.57
2022-12-13T05:56:51.097Z,90.02
2022-12-13T05:57:54.980Z,90.40
2022-12-13T05:59:06.718Z,90.26
2022-12-13T06:00:29.759Z,90.20
2022-12-13T06:01:34.188Z,90.02
2022-12-13T06:02:44.300Z,90.51
2022-12-13T06:03:48.288Z,90.40
2022-12-13T06:04:53.022Z,89.97
2022-12-13T06:05:56.620Z,89.73
2022-12-13T06:07:00.852Z,89.60
2022-12-13T06:08:24.424Z,89.59
2022-12-13T06:09:28.353Z,89.86
2022-12-13T06:10:34.123Z,89.42
2022-12-13T06:11:43.483Z,89.19
2022-12-13T06:12:47.290Z,88.94
2022-12-13T06:13:53.408Z,89.08
2022-12-13T06:15:21.612Z,89.00
2022-12-13T06:16:26.584Z,89.11
2022-12-13T06:17:36.453Z,89.29
2022-12-13T06:18:40.219Z,89.07
2022-12-13T06:19:44.009Z,88.59
2022-12-13T06:21:06.251Z,88.12
2022-12-13T06:22:10.363Z,88.12
2022-12-13T06:23:14.910Z,87.89
2022-12-13T06:24:21.537Z,87.89
2022-12-13T06:25:31.106Z,87.86
2022-12-13T06:26:37.228Z,88.08
2022-12-13T06:27:41.040Z,87.61
2022-12-13T06:28:44.740Z,87.60
2022-12-13T06:29:48.763Z,87.50
2022-12-13T06:30:52.623Z,87.46
2022-12-13T06:32:02.833Z,87.45
2022-12-13T06:33:09.586Z,87.60
2022-12-13T06:34:17.137Z,87.62
2022-12-13T06:35:28.914Z,87.42
2022-12-13T06:36:33.839Z,87.30
2022-12-13T06:37:37.623Z,87.69
2022-12-13T06:38:43.637Z,87.57
2022-12-13T06:39:48.374Z,87.62
2022-12-13T06:40:52.532Z,87.85
2022-12-13T06:41:56.799Z,87.46
2022-12-13T06:43:00.950Z,87.41
2022-12-13T06:44:05.342Z,87.76
2022-12-13T06:45:09.911Z,87.52
2022-12-13T06:46:17.596Z,87.24
2022-12-13T06:47:31.064Z,87.28
2022-12-13T06:48:36.448Z,87.17
2022-12-13T06:49:47.058Z,87.13
2022-12-13T06:50:51.544Z,87.06
2022-12-13T06:51:55.805Z,86.94
2022-12-13T06:53:01.218Z,86.98
2022-12-13T06:54:21.905Z,86.75
2022-12-13T06:55:25.866Z,86.77
2022-12-13T06:56:30.312Z,86.39
2022-12-13T06:57:34.701Z,86.19
2022-12-13T06:58:39.935Z,86.27
2022-12-13T06:59:44.327Z,86.28
2022-12-13T07:00:49.653Z,86.81
2022-12-13T07:02:03.290Z,86.03
2022-12-13T07:03:10.161Z,86.03
2022-12-13T07:04:30.201Z,86.46
2022-12-13T07:05:34.982Z,86.28
2022-12-13T07:06:39.290Z,86.22
2022-12-13T07:07:42.925Z,85.98
2022-12-13T07:08:56.754Z,86.38
2022-12-13T07:10:01.393Z,86.27
2022-12-13T07:11:05.692Z,86.16
2022-12-13T07:12:10.730Z,86.22
2022-12-13T07:13:15.350Z,85.99
2022-12-13T07:14:18.968Z,85.82
2022-12-13T07:15:22.825Z,85.87
2022-12-13T07:16:28.304Z,86.03
2022-12-13T07:17:34.596Z,86.10
2022-12-13T07:18:39.632Z,86.17
2022-12-13T07:19:43.958Z,85.95
2022-12-13T07:20:48.100Z,85.83
2022-12-13T07:21:54.623Z,86.01
2022-12-13T07:23:05.623Z,85.76
2022-12-13T07:24:09.721Z,85.84
2022-12-13T07:25:28.052Z,85.91
2022-12-13T07:26:33.102Z,85.65
2022-12-13T07:27:37.747Z,85.92
2022-12-13T07:28:41.334Z,85.78
2022-12-13T07:29:45.096Z,85.18
2022-12-13T07:30:49.828Z,85.33
2022-12-13T07:31:54.170Z,85.54
2022-12-13T07:33:07.179Z,85.30
2022-12-13T07:34:15.445Z,85.50
2022-12-13T07:35:21.007Z,85.71
2022-12-13T07:36:27.060Z,85.35
2022-12-13T07:37:31.296Z,85.44
2022-12-13T07:38:36.348Z,85.62
2022-12-13T07:39:40.179Z,85.40
2022-12-13T07:40:44.073Z,85.37
2022-12-13T07:41:48.321Z,85.16
2022-12-13T07:42:57.553Z,85.12
2022-12-13T07:44:01.241Z,84.97
2022-12-13T07:45:06.092Z,84.85
2022-12-13T07:46:12.918Z,84.56
2022-12-13T07:47:17.026Z,84.61
2022-12-13T07:48:20.939Z,84.78
2022-12-13T07:49:25.211Z,84.92
2022-12-13T07:50:29.041Z,84.66
2022-12-13T07:51:43.157Z,84.83
2022-12-13T07:52:51.561Z,84.48
2022-12-13T07:53:55.124Z,84.49
2022-12-13T07:54:58.870Z,84.87
2022-12-13T07:56:05.127Z,84.51
2022-12-13T07:57:08.867Z,84.44
2022-12-13T07:58:15.322Z,84.83
2022-12-13T07:59:28.610Z,84.39
2022-12-13T08:00:33.435Z,84.44
2022-12-13T08:01:37.797Z,84.80
2022-12-13T08:02:42.375Z,84.44
2022-12-13T08:03:49.172Z,83.93
2022-12-13T08:04:55.099Z,84.01
2022-12-13T08:06:14.049Z,83.43
2022-12-13T08:07:18.208Z,83.22
2022-12-13T08:08:21.887Z,83.38
2022-12-13T08:09:35.633Z,83.39
2022-12-13T08:10:39.948Z,83.00
2022-12-13T08:11:43.893Z,83.37
2022-12-13T08:12:47.638Z,83.23
2022-12-13T08:13:54.116Z,82.82
2022-12-13T08:14:57.724Z,82.38
2022-12-13T08:16:05.327Z,82.65
2022-12-13T08:17:29.302Z,82.70
2022-12-13T08:18:33.459Z,82.88
2022-12-13T08:19:37.324Z,82.34
2022-12-13T08:20:41.359Z,82.45
2022-12-13T08:21:54.665Z,81.86
2022-12-13T08:23:01.927Z,81.94
2022-12-13T08:24:15.384Z,81.79
2022-12-13T08:25:20.486Z,82.05
2022-12-13T08:26:24.371Z,82.09
2022-12-13T08:27:28.561Z,81.43
2022-12-13T08:28:34.017Z,81.43
2022-12-13T08:29:38.024Z,80.89
2022-12-13T08:30:41.709Z,80.68
2022-12-13T08:31:46.436Z,81.21
2022-12-13T08:32:51.359Z,80.71
2022-12-13T08:33:55.251Z,80.80
2022-12-13T08:34:59.229Z,81.04
2022-12-13T08:36:16.539Z,80.94
2022-12-13T08:37:20.640Z,80.78
2022-12-13T08:38:24.443Z,80.73
2022-12-13T08:39:28.637Z,81.06
2022-12-13T08:40:32.881Z,81.14
2022-12-13T08:41:39.271Z,80.68
2022-12-13T08:42:43.592Z,80.79
2022-12-13T08:43:48.181Z,81.06
2022-12-13T08:44:54.160Z,81.84
2022-12-13T08:46:01.277Z,80.49
2022-12-13T08:47:10.427Z,81.05
2022-12-13T08:48:15.108Z,80.12
2022-12-13T08:49:23.122Z,80.46
2022-12-13T08:50:27.850Z,80.17
2022-12-13T08:51:35.622Z,79.95
2022-12-13T08:52:42.476Z,79.58
2022-12-13T08:53:46.497Z,79.49
2022-12-13T08:54:51.131Z,79.23
2022-12-13T08:55:59.395Z,79.05
2022-12-13T08:57:03.653Z,79.02
2022-12-13T08:58:08.890Z,78.87
2022-12-13T08:59:12.651Z,78.51
2022-12-13T09:00:21.721Z,78.43
2022-12-13T09:01:25.982Z,78.71
2022-12-13T09:02:29.694Z,78.46
2022-12-13T09:03:41.584Z,78.36
2022-12-13T09:04:48.096Z,78.30
2022-12-13T09:05:55.297Z,78.19
2022-12-13T09:07:01.378Z,78.45
2022-12-13T09:08:13.311Z,78.42
2022-12-13T09:09:29.724Z,78.39
2022-12-13T09:10:38.157Z,78.72
2022-12-13T09:11:42.628Z,78.47
2022-12-13T09:12:50.450Z,78.85
2022-12-13T09:14:01.234Z,78.35
2022-12-13T09:15:06.845Z,78.36
2022-12-13T09:16:27.164Z,78.15
2022-12-13T09:17:36.484Z,78.56
2022-12-13T09:18:42.612Z,79.05
2022-12-13T09:19:49.707Z,78.92
2022-12-13T09:20:53.315Z,78.57
2022-12-13T09:22:14.886Z,79.02
2022-12-13T09:23:23.506Z,79.64
2022-12-13T09:24:28.741Z,79.16
2022-12-13T09:25:40.646Z,79.11
2022-12-13T09:26:45.475Z,79.32
2022-12-13T09:27:49.532Z,79.38
2022-12-13T09:28:55.561Z,79.38
2022-12-13T09:30:00.718Z,79.02
2022-12-13T09:31:16.362Z,79.06
2022-12-13T09:32:20.350Z,79.03
2022-12-13T09:33:29.996Z,79.19
2022-12-13T09:34:35.201Z,79.44
2022-12-13T09:35:39.284Z,79.34
2022-12-13T09:36:42.954Z,79.41
2022-12-13T09:37:47.316Z,79.67
2022-12-13T09:38:53.171Z,79.80
2022-12-13T09:39:57.044Z,79.83
2022-12-13T09:41:28.705Z,79.98
2022-12-13T09:42:35.789Z,80.34
2022-12-13T09:44:02.563Z,80.35
2022-12-13T09:45:22.399Z,79.51
2022-12-13T09:46:44.352Z,79.09
2022-12-13T09:47:51.458Z,79.16
2022-12-13T09:49:01.884Z,79.30
2022-12-13T09:50:38.697Z,78.88
2022-12-13T09:52:10.081Z,78.25
2022-12-13T09:53:33.703Z,77.94
2022-12-13T09:54:48.241Z,77.48
2022-12-13T09:55:52.771Z,77.78
2022-12-13T09:57:00.493Z,77.94
2022-12-13T09:58:18.479Z,77.57
2022-12-13T09:59:30.376Z,78.03
2022-12-13T10:00:37.286Z,77.95
2022-12-13T10:01:41.093Z,77.94
2022-12-13T10:02:58.995Z,77.70
2022-12-13T10:04:02.756Z,77.93
2022-12-13T10:05:38.567Z,77.38
2022-12-13T10:06:42.952Z,77.65
2022-12-13T10:07:47.092Z,77.80
2022-12-13T10:08:57.912Z,77.92
2022-12-13T10:10:04.531Z,78.23
2022-12-13T10:11:13.241Z,78.17
2022-12-13T10:12:18.770Z,77.91
2022-12-13T10:13:43.717Z,77.85
2022-12-13T10:14:58.419Z,77.69
2022-12-13T10:16:15.967Z,77.63
2022-12-13T10:17:39.408Z,77.53
2022-12-13T10:18:45.334Z,77.18
2022-12-13T10:19:51.908Z,77.81
2022-12-13T10:20:56.612Z,77.46
2022-12-13T10:22:03.944Z,77.00
2022-12-13T10:23:33.134Z,76.48
2022-12-13T10:25:00.894Z,75.99
2022-12-13T10:26:14.731Z,75.90
2022-12-13T10:27:42.852Z,75.27
2022-12-13T10:29:08.529Z,75.53
2022-12-13T10:30:14.969Z,75.15
2022-12-13T10:31:23.170Z,75.18
2022-12-13T10:32:28.765Z,74.41
2022-12-13T10:33:37.315Z,74.75
2022-12-13T10:34:41.414Z,74.19
2022-12-13T10:35:47.499Z,74.25
2022-12-13T10:36:52.852Z,74.12
2022-12-13T10:38:32.067Z,73.56
2022-12-13T10:39:52.833Z,74.23
2022-12-13T10:40:56.971Z,74.40
2022-12-13T10:42:14.489Z,74.21
2022-12-13T10:43:31.028Z,73.25
2022-12-13T10:44:34.831Z,74.03
2022-12-13T10:45:38.712Z,73.75
2022-12-13T10:46:55.447Z,74.09
2022-12-13T10:48:04.002Z,74.05
2022-12-13T10:49:52.226Z,73.75
2022-12-13T10:51:17.888Z,74.43
2022-12-13T10:52:31.484Z,74.37
2022-12-13T10:53:47.405Z,74.24
2022-12-13T10:54:53.250Z,74.04
2022-12-13T10:56:06.888Z,74.16
2022-12-13T10:57:13.413Z,74.08
2022-12-13T10:58:20.631Z,74.28
2022-12-13T10:59:39.540Z,74.84
2022-12-13T11:00:46.991Z,74.85
2022-12-13T11:01:55.303Z,74.67
2022-12-13T11:03:02.728Z,75.25
2022-12-13T11:04:36.962Z,74.86
2022-12-13T11:05:41.388Z,75.26
2022-12-13T11:06:48.516Z,75.92
2022-12-13T11:08:15.356Z,75.63
2022-12-13T11:09:39.058Z,76.25
2022-12-13T11:10:44.132Z,75.29
2022-12-13T11:11:58.519Z,75.38
2022-12-13T11:13:08.937Z,74.75
2022-12-13T11:14:31.775Z,74.45
2022-12-13T11:15:39.075Z,73.85
2022-12-13T11:16:51.006Z,73.83
2022-12-13T11:18:05.133Z,73.64
2022-12-13T11:19:25.473Z,73.50
2022-12-13T11:22:02.333Z,73.65
2022-12-13T11:23:29.933Z,73.97
2022-12-13T11:24:41.216Z,74.21
2022-12-13T11:25:55.821Z,73.87
2022-12-13T11:27:29.850Z,73.26
2022-12-13T11:29:29.775Z,73.70
2022-12-13T11:31:07.869Z,72.34
2022-12-13T11:32:56.005Z,72.41
2022-12-13T11:34:42.700Z,73.01
2022-12-13T11:36:18.949Z,72.31
2022-12-13T11:37:52.823Z,72.19
2022-12-13T11:39:31.035Z,72.82
2022-12-13T11:40:54.670Z,72.67
2022-12-13T11:42:29.563Z,72.69
2022-12-13T11:43:55.798Z,72.68
2022-12-13T11:45:23.067Z,72.54
2022-12-13T11:47:08.159Z,72.57
2022-12-13T11:48:25.964Z,72.63
2022-12-13T11:49:46.969Z,73.40
2022-12-13T11:50:57.270Z,74.80
2022-12-13T11:52:49.967Z,75.34
2022-12-13T11:54:13.408Z,78.99
2022-12-13T11:55:40.870Z,75.33
2022-12-13T11:56:46.316Z,73.62
2022-12-13T11:59:00.670Z,73.70
2022-12-13T12:00:02.326Z,75.21
2022-12-13T12:01:32.504Z,73.76
2022-12-13T12:02:53.612Z,73.23
2022-12-13T12:04:19.477Z,72.56
2022-12-13T12:05:38.837Z,71.63
2022-12-13T12:07:33.255Z,71.38
2022-12-13T12:08:56.881Z,72.21
2022-12-13T12:10:30.986Z,71.89
2022-12-13T12:12:00.733Z,71.01
2022-12-13T12:13:23.375Z,70.71
2022-12-13T12:14:44.218Z,71.37
2022-12-13T12:16:01.840Z,71.26
2022-12-13T12:17:07.384Z,71.41
2022-12-13T12:18:16.668Z,71.55
2022-12-13T12:19:56.275Z,71.45
2022-12-13T12:22:04.799Z,70.80
2022-12-13T12:23:23.643Z,71.57
2022-12-13T12:25:14.037Z,71.69
2022-12-13T12:26:24.114Z,71.82
2022-12-13T12:28:02.300Z,71.34
2022-12-13T12:30:08.781Z,72.09
2022-12-13T12:31:32.034Z,72.53
2022-12-13T12:33:29.625Z,72.26
2022-12-13T12:34:47.960Z,71.63
2022-12-13T12:36:43.571Z,71.52
2022-12-13T12:37:56.643Z,71.27
2022-12-13T12:39:15.195Z,71.03
2022-12-13T12:41:07.008Z,71.80
2022-12-13T12:42:26.868Z,72.38
2022-12-13T12:43:43.892Z,72.23
2022-12-13T12:44:51.275Z,74.41
2022-12-13T12:46:22.273Z,72.92
2022-12-13T12:48:08.977Z,72.50
2022-12-13T12:49:46.094Z,71.77
2022-12-13T12:51:05.128Z,70.82
2022-12-13T12:52:39.469Z,71.01
2022-12-13T12:54:15.944Z,71.68
2022-12-13T12:55:42.296Z,74.89
2022-12-13T12:57:05.065Z,73.07
2022-12-13T12:58:46.047Z,72.98
2022-12-13T13:00:10.188Z,72.12
2022-12-13T13:01:58.482Z,71.86
2022-12-13T13:03:28.381Z,72.71
2022-12-13T13:04:46.646Z,72.62
2022-12-13T13:06:06.344Z,71.63
2022-12-13T13:07:40.363Z,72.31
2022-12-13T13:09:11.066Z,72.17
2022-12-13T13:10:26.763Z,71.71
2022-12-13T13:11:43.041Z,71.80
2022-12-13T13:12:51.657Z,72.21
2022-12-13T13:14:03.481Z,72.16
2022-12-13T13:15:44.821Z,72.13
2022-12-13T13:16:50.001Z,71.42
2022-12-13T13:17:55.128Z,71.38
2022-12-13T13:19:04.186Z,71.70
2022-12-13T13:20:23.790Z,71.32
2022-12-13T13:21:50.864Z,72.23
2022-12-13T13:23:38.610Z,71.93
2022-12-13T13:24:25.976Z,71.96
2022-12-13T13:25:32.542Z,71.75
2022-12-13T13:26:43.656Z,71.74
2022-12-13T13:27:51.743Z,72.18
2022-12-13T13:29:15.859Z,72.38
2022-12-13T13:30:33.603Z,72.65
2022-12-13T13:32:12.364Z,72.90
2022-12-13T13:33:50.133Z,72.98
2022-12-13T13:34:54.088Z,72.39
2022-12-13T13:36:04.807Z,72.88
2022-12-13T13:37:48.445Z,72.38
2022-12-13T13:38:55.612Z,71.84
2022-12-13T13:40:30.345Z,72.08
2022-12-13T13:42:14.448Z,71.60
2022-12-13T13:43:32.593Z,72.06
2022-12-13T13:44:46.211Z,72.21
2022-12-13T13:45:50.103Z,71.68
2022-12-13T13:47:15.150Z,71.66
2022-12-13T13:48:41.981Z,71.90
2022-12-13T13:50:17.122Z,71.07
2022-12-13T13:52:30.214Z,70.93
2022-12-13T13:53:55.976Z,71.29
2022-12-13T13:55:26.693Z,71.24
2022-12-13T13:57:28.934Z,70.60
2022-12-13T13:59:29.600Z,69.56
2022-12-13T14:01:11.847Z,70.55
2022-12-13T14:02:56.438Z,70.82
2022-12-13T14:04:55.460Z,70.48
2022-12-13T14:06:45.788Z,71.00
2022-12-13T14:08:32.622Z,71.39
2022-12-13T14:10:14.050Z,71.63
2022-12-13T14:11:43.299Z,72.09
2022-12-13T14:13:18.036Z,73.00
2022-12-13T14:14:50.027Z,73.28
2022-12-13T14:16:21.643Z,74.05
2022-12-13T14:18:00.465Z,73.55
2022-12-13T14:19:56.606Z,73.62
2022-12-13T14:21:32.611Z,74.30
2022-12-13T14:23:04.016Z,73.97
2022-12-13T14:25:08.086Z,73.45
2022-12-13T14:26:36.490Z,74.50
2022-12-13T14:28:02.387Z,73.87
2022-12-13T14:29:37.792Z,74.70
2022-12-13T14:30:48.224Z,74.08
2022-12-13T14:32:04.852Z,73.90
2022-12-13T14:33:23.592Z,73.32
2022-12-13T14:34:33.344Z,73.47
2022-12-13T14:35:37.115Z,73.73
2022-12-13T14:36:42.978Z,74.00
2022-12-13T14:38:03.978Z,74.20
2022-12-13T14:39:25.373Z,74.01
2022-12-13T14:40:32.295Z,73.90
2022-12-13T14:41:57.138Z,74.30
2022-12-13T14:43:02.037Z,73.56
2022-12-13T14:44:24.290Z,73.56
2022-12-13T14:45:34.102Z,73.81
2022-12-13T14:46:38.111Z,73.86
2022-12-13T14:47:43.967Z,73.44
2022-12-13T14:48:53.913Z,73.61
2022-12-13T14:49:58.950Z,73.71
2022-12-13T14:51:03.103Z,73.66
2022-12-13T14:52:26.065Z,73.85
2022-12-13T14:53:43.736Z,74.12
2022-12-13T14:55:01.731Z,74.35
2022-12-13T14:56:28.784Z,73.73
2022-12-13T14:57:35.594Z,74.24
2022-12-13T14:58:52.134Z,74.01
2022-12-13T14:59:59.140Z,74.24
2022-12-13T15:01:05.603Z,74.23
2022-12-13T15:02:30.151Z,74.03
2022-12-13T15:03:35.372Z,74.36
2022-12-13T15:04:39.440Z,74.56
2022-12-13T15:05:51.138Z,74.69
2022-12-13T15:07:15.340Z,73.07
2022-12-13T15:08:20.881Z,72.73
2022-12-13T15:09:29.189Z,72.67
2022-12-13T15:10:48.923Z,72.61
2022-12-13T15:11:57.460Z,72.72
2022-12-13T15:13:06.438Z,72.39
2022-12-13T15:14:19.695Z,71.54
2022-12-13T15:15:39.160Z,71.39
2022-12-13T15:17:03.406Z,71.52
2022-12-13T15:18:26.753Z,70.78
2022-12-13T15:19:35.070Z,70.72
2022-12-13T15:20:42.505Z,70.52
2022-12-13T15:22:07.922Z,70.28
2022-12-13T15:23:31.799Z,70.67
2022-12-13T15:24:47.188Z,69.32
2022-12-13T15:26:27.993Z,69.36
2022-12-13T15:27:33.968Z,69.24
2022-12-13T15:28:43.928Z,69.51
2022-12-13T15:29:49.481Z,69.15
2022-12-13T15:30:55.269Z,69.30
2022-12-13T15:31:59.044Z,69.45
2022-12-13T15:33:33.489Z,69.96
2022-12-13T15:34:40.879Z,69.93
2022-12-13T15:35:49.198Z,69.81
2022-12-13T15:36:57.922Z,69.90
2022-12-13T15:38:04.241Z,69.83
2022-12-13T15:39:15.234Z,70.00
2022-12-13T15:40:22.548Z,70.06
2022-12-13T15:41:36.824Z,69.70